Time;durP1;ratioP1;P1;durP2;ratioP2;P2;SDS_P1;SDS_P2;PMS_P1;PMS_P2;Temp;Humidity;BMP_temperature;BMP_pressure;BME280_temperature;BME280_humidity;BME280_pressure;Samples;Min_cycle;Max_cycle;Signal;HPM_P1;HPM_P2
2023/01/09 00:00:42;;;;;;;4.55;2.20;;;8.40;99.90;;;;;;5023171;28;20273;-57
2023/01/09 00:03:07;;;;;;;3.28;1.90;;;8.30;99.90;;;;;;5022664;28;20096;-57
2023/01/09 00:05:33;;;;;;;3.40;1.80;;;8.30;99.90;;;;;;5014871;28;20519;-58
2023/01/09 00:07:58;;;;;;;2.55;1.33;;;8.40;99.90;;;;;;5023514;28;20447;-57
2023/01/09 00:10:24;;;;;;;3.30;1.60;;;8.40;99.90;;;;;;5006041;28;20036;-58
2023/01/09 00:12:50;;;;;;;5.40;1.30;;;8.30;99.90;;;;;;5020523;28;20030;-57
2023/01/09 00:15:15;;;;;;;3.53;1.10;;;8.20;99.90;;;;;;5018003;28;20037;-56
2023/01/09 00:17:41;;;;;;;2.65;1.27;;;8.20;99.90;;;;;;5024204;28;20032;-57
2023/01/09 00:20:11;;;;;;;2.78;1.00;;;8.20;99.90;;;;;;5023893;28;20033;-57
2023/01/09 00:22:36;;;;;;;1.67;0.88;;;8.20;99.90;;;;;;5024719;28;20041;-57
2023/01/09 00:25:03;;;;;;;2.50;1.00;;;8.20;99.90;;;;;;5019597;28;20037;-57
2023/01/09 00:27:31;;;;;;;2.10;1.00;;;8.20;99.90;;;;;;5022993;28;20091;-57
2023/01/09 00:29:57;;;;;;;1.30;0.80;;;8.10;99.90;;;;;;5023096;28;20065;-57
2023/01/09 00:32:22;;;;;;;1.23;0.52;;;8.20;99.90;;;;;;5021827;28;20069;-57
2023/01/09 00:34:48;;;;;;;4.07;0.90;;;8.10;99.90;;;;;;5021336;28;20141;-56
2023/01/09 00:37:14;;;;;;;0.85;0.60;;;8.20;99.90;;;;;;5022108;28;20033;-56
2023/01/09 00:39:40;;;;;;;1.13;0.50;;;8.20;99.90;;;;;;5025507;28;20025;-56
2023/01/09 00:42:10;;;;;;;1.23;0.60;;;8.20;99.90;;;;;;5020741;28;20079;-56
2023/01/09 00:44:41;;;;;;;0.70;0.50;;;8.20;99.90;;;;;;5025296;28;20543;-56
2023/01/09 00:47:14;;;;;;;2.10;0.70;;;8.20;99.90;;;;;;5023901;28;20052;-56
2023/01/09 00:49:42;;;;;;;1.45;0.55;;;8.30;99.90;;;;;;5021144;28;20037;-57
2023/01/09 00:52:09;;;;;;;1.88;0.85;;;8.40;99.90;;;;;;5024127;28;20049;-55
2023/01/09 00:54:36;;;;;;;0.90;0.45;;;8.50;99.90;;;;;;5024616;28;20037;-57
2023/01/09 00:57:01;;;;;;;2.97;0.55;;;8.50;99.90;;;;;;5029084;28;20064;-56
2023/01/09 00:59:27;;;;;;;0.57;0.40;;;8.50;99.90;;;;;;5018066;28;20065;-57
2023/01/09 01:01:53;;;;;;;1.95;0.57;;;8.60;99.90;;;;;;5039798;28;20048;-57
2023/01/09 01:09:47;;;;;;;1.83;0.90;;;8.70;99.90;;;;;;5044663;28;20498;-55
2023/01/09 01:12:13;;;;;;;1.75;0.63;;;8.70;99.90;;;;;;5045773;28;20025;-55
2023/01/09 01:14:38;;;;;;;1.02;0.50;;;8.80;99.90;;;;;;5048133;28;20377;-55
2023/01/09 01:17:05;;;;;;;1.13;0.63;;;8.90;99.90;;;;;;5046740;28;20056;-55
2023/01/09 01:19:32;;;;;;;1.13;0.60;;;9.00;99.90;;;;;;5039023;28;20057;-56
2023/01/09 01:21:58;;;;;;;0.40;0.40;;;8.80;99.90;;;;;;5046678;28;20037;-56
2023/01/09 01:24:24;;;;;;;0.98;0.60;;;8.80;99.90;;;;;;5047030;28;20519;-56
2023/01/09 01:26:49;;;;;;;0.38;0.38;;;8.80;99.90;;;;;;5045181;28;20500;-55
2023/01/09 01:29:15;;;;;;;1.10;0.60;;;9.00;99.90;;;;;;5047035;28;20447;-57
2023/01/09 01:31:40;;;;;;;3.20;0.95;;;9.00;99.90;;;;;;5046062;28;20033;-55
2023/01/09 01:34:06;;;;;;;1.02;0.60;;;8.80;99.90;;;;;;5045491;28;20047;-55
2023/01/09 01:36:32;;;;;;;0.95;0.60;;;8.50;99.90;;;;;;5046525;28;20033;-56
2023/01/09 01:38:58;;;;;;;1.58;0.70;;;8.50;99.90;;;;;;5047319;28;20519;-55
2023/01/09 01:41:29;;;;;;;0.70;0.50;;;8.50;99.90;;;;;;5043338;28;20047;-56
2023/01/09 01:44:03;;;;;;;0.63;0.60;;;8.60;99.90;;;;;;5047133;28;20040;-55
2023/01/09 01:46:31;;;;;;;1.75;0.57;;;8.60;99.90;;;;;;5046609;28;20099;-55
2023/01/09 01:49:05;;;;;;;1.27;0.75;;;8.50;99.90;;;;;;5046268;28;20496;-57
2023/01/09 01:51:34;;;;;;;2.95;0.90;;;8.60;99.90;;;;;;5046437;28;20033;-56
2023/01/09 01:54:04;;;;;;;2.58;0.80;;;8.70;99.90;;;;;;5045790;28;20045;-57
2023/01/09 01:56:42;;;;;;;4.50;0.90;;;8.70;99.90;;;;;;5026121;28;20698;-57
2023/01/09 01:59:13;;;;;;;2.88;1.10;;;8.60;99.90;;;;;;5046320;28;20428;-56
2023/01/09 02:01:42;;;;;;;2.95;0.80;;;8.60;99.90;;;;;;5043103;28;20111;-56
2023/01/09 02:04:08;;;;;;;2.25;1.00;;;8.70;99.90;;;;;;5043675;28;20033;-56
2023/01/09 02:06:36;;;;;;;2.88;0.60;;;8.70;99.90;;;;;;5046822;28;20029;-55
2023/01/09 02:09:04;;;;;;;2.78;0.70;;;8.70;99.90;;;;;;5046171;28;20029;-55
2023/01/09 02:11:30;;;;;;;3.38;0.70;;;8.70;99.90;;;;;;5044653;28;20476;-55
2023/01/09 02:13:56;;;;;;;1.73;0.82;;;8.60;99.90;;;;;;5045573;28;20036;-57
2023/01/09 02:16:55;;;;;;;2.95;0.95;;;8.40;99.90;;;;;;5045628;28;20041;-56
2023/01/09 02:19:21;;;;;;;3.63;1.10;;;8.50;99.90;;;;;;5027314;28;20064;-55
2023/01/09 02:22:30;;;;;;;1.88;1.20;;;8.40;99.90;;;;;;5050481;28;20512;-56
2023/01/09 02:25:25;;;;;;;2.22;1.00;;;8.20;99.90;;;;;;4982771;28;20046;-56
2023/01/09 02:28:34;;;;;;;1.83;1.00;;;8.30;99.90;;;;;;5042404;28;20044;-56
2023/01/09 02:31:24;;;;;;;2.28;1.20;;;8.30;99.90;;;;;;5046313;28;20041;-56
2023/01/09 02:34:08;;;;;;;3.08;1.42;;;8.10;99.90;;;;;;5044217;28;20119;-57
2023/01/09 02:36:41;;;;;;;3.50;1.60;;;8.20;99.90;;;;;;5044631;28;20029;-56
2023/01/09 02:39:34;;;;;;;2.97;0.77;;;8.30;99.90;;;;;;5045057;28;20064;-57
2023/01/09 02:42:07;;;;;;;3.58;1.58;;;8.20;99.90;;;;;;5036599;28;20507;-56
2023/01/09 02:44:35;;;;;;;3.85;1.40;;;8.10;99.90;;;;;;5046040;28;20480;-56
2023/01/09 02:47:28;;;;;;;5.10;1.10;;;8.10;99.90;;;;;;5044539;28;20415;-56
2023/01/09 02:50:03;;;;;;;3.30;1.40;;;8.00;99.90;;;;;;5043282;28;20033;-56
2023/01/09 02:52:52;;;;;;;3.13;1.20;;;8.20;99.90;;;;;;5047931;28;20037;-54
2023/01/09 02:55:38;;;;;;;3.95;1.27;;;8.30;99.90;;;;;;5005697;28;20043;-55
2023/01/09 02:58:28;;;;;;;3.55;1.10;;;8.30;99.90;;;;;;5037457;28;20507;-56
2023/01/09 03:01:21;;;;;;;2.92;1.27;;;8.20;99.90;;;;;;5024031;28;20539;-56
2023/01/09 03:04:03;;;;;;;3.72;0.98;;;8.10;99.90;;;;;;5041766;28;20134;-56
2023/01/09 03:07:08;;;;;;;2.30;1.00;;;8.10;99.90;;;;;;5043896;28;20686;-57
2023/01/09 03:09:37;;;;;;;4.78;1.65;;;8.00;99.90;;;;;;5042221;28;20631;-55
2023/01/09 03:12:25;;;;;;;4.65;1.23;;;8.00;99.90;;;;;;5043436;28;20029;-56
2023/01/09 03:14:55;;;;;;;2.55;1.10;;;8.10;99.90;;;;;;5043343;28;20598;-55
2023/01/09 03:17:29;;;;;;;4.38;1.50;;;7.90;99.90;;;;;;5041873;28;20484;-56
2023/01/09 03:19:56;;;;;;;4.68;1.27;;;7.80;99.90;;;;;;5042616;28;20480;-55
2023/01/09 03:22:22;;;;;;;6.32;1.52;;;7.70;99.90;;;;;;5044030;28;20468;-56
2023/01/09 03:24:48;;;;;;;4.35;1.67;;;7.70;99.90;;;;;;5042847;28;20075;-56
2023/01/09 03:27:14;;;;;;;3.78;1.60;;;7.90;99.90;;;;;;5043732;28;20124;-55
2023/01/09 03:29:39;;;;;;;3.95;1.75;;;7.90;99.90;;;;;;5037678;28;20409;-56
2023/01/09 03:32:05;;;;;;;4.90;1.90;;;7.80;99.90;;;;;;5022230;28;20042;-55
2023/01/09 03:34:31;;;;;;;6.20;1.85;;;7.70;99.90;;;;;;5023218;28;20087;-56
2023/01/09 03:36:56;;;;;;;9.60;2.00;;;7.70;99.90;;;;;;5023093;28;20366;-56
2023/01/09 03:39:22;;;;;;;4.13;1.98;;;7.70;99.90;;;;;;5023533;28;20124;-56
2023/01/09 03:41:47;;;;;;;4.57;2.10;;;7.80;99.90;;;;;;5021076;28;20493;-56
2023/01/09 03:44:13;;;;;;;4.32;1.73;;;7.40;99.90;;;;;;5024673;28;20022;-56
2023/01/09 03:46:38;;;;;;;5.78;1.60;;;7.30;99.90;;;;;;5022604;28;20033;-55
2023/01/09 03:49:04;;;;;;;6.43;2.17;;;7.20;99.90;;;;;;5022146;28;20036;-54
2023/01/09 03:51:30;;;;;;;6.97;2.50;;;7.20;99.90;;;;;;5006637;28;20105;-55
2023/01/09 03:53:55;;;;;;;8.98;2.08;;;7.20;99.90;;;;;;5021408;28;20029;-56
2023/01/09 03:56:21;;;;;;;5.70;2.28;;;7.30;99.90;;;;;;5022792;28;20112;-56
2023/01/09 03:58:48;;;;;;;3.10;1.75;;;;;;;;;;5025263;28;20464;-56
2023/01/09 04:01:14;;;;;;;6.07;1.95;;;6.90;99.90;;;;;;5022973;28;20033;-55
2023/01/09 04:03:40;;;;;;;8.45;2.05;;;6.90;99.90;;;;;;5018756;28;20092;-54
2023/01/09 04:06:06;;;;;;;6.32;1.95;;;6.90;99.90;;;;;;5023864;28;20021;-56
2023/01/09 04:08:31;;;;;;;6.18;1.80;;;6.80;99.90;;;;;;5024144;28;20026;-56
2023/01/09 04:10:57;;;;;;;4.35;1.85;;;6.80;99.90;;;;;;5021819;28;20037;-54
2023/01/09 04:13:23;;;;;;;4.05;1.88;;;6.80;99.90;;;;;;5023825;28;20028;-55
2023/01/09 04:15:48;;;;;;;5.68;2.60;;;6.70;99.90;;;;;;5021583;28;20257;-57
2023/01/09 04:18:14;;;;;;;6.40;2.10;;;6.60;99.90;;;;;;5024425;28;20040;-56
2023/01/09 04:20:40;;;;;;;7.22;1.88;;;6.60;99.90;;;;;;5023667;28;20049;-55
2023/01/09 04:23:06;;;;;;;5.38;1.98;;;6.60;99.90;;;;;;5022680;28;20453;-56
2023/01/09 04:25:32;;;;;;;6.07;1.90;;;6.50;99.90;;;;;;5027010;28;20057;-56
2023/01/09 04:27:57;;;;;;;3.42;1.58;;;6.50;99.90;;;;;;5028064;28;20064;-54
2023/01/09 04:30:23;;;;;;;6.45;1.63;;;6.70;99.90;;;;;;5021481;28;20041;-55
2023/01/09 04:32:50;;;;;;;5.60;1.95;;;6.50;99.90;;;;;;5024717;28;20069;-57
2023/01/09 04:35:16;;;;;;;7.28;1.63;;;6.50;99.90;;;;;;5021536;28;20032;-56
2023/01/09 04:37:42;;;;;;;3.25;1.50;;;6.50;99.90;;;;;;5007319;28;20025;-56
2023/01/09 04:40:09;;;;;;;7.43;1.50;;;6.60;99.90;;;;;;5026739;28;20049;-56
2023/01/09 04:42:35;;;;;;;8.55;2.30;;;6.50;99.90;;;;;;5028017;28;20041;-56
2023/01/09 04:45:01;;;;;;;7.00;1.88;;;6.40;99.90;;;;;;5025990;28;20034;-55
2023/01/09 04:47:26;;;;;;;6.10;1.60;;;6.50;99.90;;;;;;5025472;28;20941;-56
2023/01/09 04:49:52;;;;;;;10.05;1.92;;;6.40;99.90;;;;;;5025843;28;20025;-57
2023/01/09 04:52:18;;;;;;;7.57;1.58;;;6.40;99.90;;;;;;5026118;28;20037;-56
2023/01/09 04:54:43;;;;;;;9.38;1.52;;;6.40;99.90;;;;;;5027682;28;20124;-56
2023/01/09 04:57:09;;;;;;;6.38;1.77;;;6.40;99.90;;;;;;5028949;28;20029;-55
2023/01/09 04:59:34;;;;;;;8.15;1.70;;;6.40;99.90;;;;;;5022795;28;20230;-56
2023/01/09 05:02:00;;;;;;;8.65;2.28;;;6.60;99.90;;;;;;5024400;28;20041;-55
2023/01/09 05:04:26;;;;;;;6.38;1.45;;;6.50;99.90;;;;;;5029986;28;20045;-55
2023/01/09 05:06:51;;;;;;;6.75;1.60;;;6.50;99.90;;;;;;5030222;28;20044;-55
2023/01/09 05:09:17;;;;;;;6.13;1.55;;;6.50;99.90;;;;;;5024854;28;20091;-55
2023/01/09 05:11:42;;;;;;;7.95;1.20;;;6.60;99.90;;;;;;5026701;28;20060;-56
2023/01/09 05:14:08;;;;;;;8.48;1.27;;;6.70;99.90;;;;;;5027228;28;20060;-55
2023/01/09 05:16:34;;;;;;;8.10;1.65;;;6.70;99.90;;;;;;5026463;28;20067;-56
2023/01/09 05:19:00;;;;;;;5.60;1.38;;;6.80;99.90;;;;;;5026616;28;20121;-54
2023/01/09 05:21:26;;;;;;;7.88;1.48;;;6.80;99.90;;;;;;5023036;28;20132;-57
2023/01/09 05:23:52;;;;;;;9.85;1.48;;;6.90;99.90;;;;;;5025844;28;20026;-56
2023/01/09 05:26:24;;;;;;;10.00;1.73;;;6.90;99.90;;;;;;5023580;28;20041;-56
2023/01/09 05:28:51;;;;;;;7.18;1.20;;;6.90;99.90;;;;;;5026015;28;20079;-55
2023/01/09 05:31:17;;;;;;;9.48;1.40;;;6.90;99.90;;;;;;5025320;28;20033;-56
2023/01/09 05:33:43;;;;;;;6.65;1.55;;;6.90;99.90;;;;;;5026649;28;20053;-57
2023/01/09 05:36:09;;;;;;;9.32;1.88;;;6.90;99.90;;;;;;5023872;28;20053;-56
2023/01/09 05:38:34;;;;;;;8.85;1.45;;;7.00;99.90;;;;;;5026147;28;20033;-56
2023/01/09 05:41:00;;;;;;;6.57;1.17;;;6.90;99.90;;;;;;5033166;28;20065;-56
2023/01/09 05:43:25;;;;;;;8.52;1.58;;;7.00;99.90;;;;;;5046024;28;20026;-57
2023/01/09 05:45:51;;;;;;;6.78;1.30;;;7.10;99.90;;;;;;5046208;28;20095;-56
2023/01/09 05:48:16;;;;;;;6.03;1.23;;;7.10;99.90;;;;;;5045780;28;20079;-55
2023/01/09 05:50:42;;;;;;;9.15;1.52;;;7.20;99.90;;;;;;5046690;28;20041;-55
2023/01/09 05:53:08;;;;;;;5.90;1.45;;;7.10;99.90;;;;;;5042766;28;20055;-57
2023/01/09 05:55:33;;;;;;;6.97;1.13;;;7.00;99.90;;;;;;5044114;28;20033;-55
2023/01/09 05:57:59;;;;;;;6.03;1.30;;;7.00;99.90;;;;;;5045118;28;20029;-56
2023/01/09 06:00:25;;;;;;;5.82;1.10;;;7.10;99.90;;;;;;5044102;28;20373;-56
2023/01/09 06:02:50;;;;;;;8.23;1.38;;;7.10;99.90;;;;;;5045001;28;20033;-56
2023/01/09 06:05:16;;;;;;;7.38;1.10;;;7.00;99.90;;;;;;5045315;28;20037;-56
2023/01/09 06:07:42;;;;;;;6.88;1.40;;;7.00;99.90;;;;;;5046241;28;20029;-55
2023/01/09 06:10:10;;;;;;;5.38;1.40;;;7.00;99.90;;;;;;5042764;28;20041;-55
2023/01/09 06:12:36;;;;;;;6.00;1.38;;;7.00;99.90;;;;;;5046193;28;20473;-56
2023/01/09 06:15:02;;;;;;;4.97;1.65;;;7.00;99.90;;;;;;5044948;28;20082;-56
2023/01/09 06:17:27;;;;;;;7.00;1.58;;;7.10;99.90;;;;;;5046776;28;20037;-56
2023/01/09 06:19:53;;;;;;;6.55;1.13;;;7.10;99.90;;;;;;5050996;28;20044;-56
2023/01/09 06:22:18;;;;;;;4.28;1.00;;;7.10;99.90;;;;;;5054030;28;20036;-55
2023/01/09 06:24:44;;;;;;;8.23;1.63;;;7.10;99.90;;;;;;5046900;28;20040;-56
2023/01/09 06:27:11;;;;;;;8.73;1.25;;;7.10;99.90;;;;;;5043565;28;20047;-55
2023/01/09 06:29:37;;;;;;;7.38;1.95;;;7.10;99.90;;;;;;5045113;28;20037;-56
2023/01/09 06:32:03;;;;;;;8.40;1.30;;;7.20;99.90;;;;;;5041562;28;20036;-56
2023/01/09 06:34:29;;;;;;;9.18;2.00;;;7.20;99.90;;;;;;5044763;28;20035;-56
2023/01/09 06:36:54;;;;;;;8.13;1.52;;;7.20;99.90;;;;;;5044324;28;20057;-56
2023/01/09 06:39:20;;;;;;;5.70;1.38;;;7.10;99.90;;;;;;5045715;28;20043;-56
2023/01/09 06:41:45;;;;;;;6.07;1.42;;;7.20;99.90;;;;;;5044502;28;20051;-56
2023/01/09 06:44:11;;;;;;;5.70;1.13;;;7.20;99.90;;;;;;5044604;28;20033;-54
2023/01/09 06:46:37;;;;;;;5.82;1.52;;;7.30;99.90;;;;;;5046107;28;20506;-56
2023/01/09 06:49:02;;;;;;;8.63;1.73;;;7.30;99.90;;;;;;5044793;28;20033;-54
2023/01/09 06:51:28;;;;;;;7.45;1.33;;;7.30;99.90;;;;;;5045148;28;20028;-56
2023/01/09 06:53:53;;;;;;;4.88;1.55;;;7.30;99.90;;;;;;5031189;28;20086;-56
2023/01/09 06:56:19;;;;;;;8.18;1.77;;;7.30;99.90;;;;;;5044297;28;20123;-56
2023/01/09 06:58:45;;;;;;;3.40;1.10;;;7.40;99.90;;;;;;5044334;28;20040;-56
2023/01/09 07:01:10;;;;;;;8.50;1.63;;;7.40;99.90;;;;;;5026754;28;20047;-56
2023/01/09 07:03:36;;;;;;;9.45;1.80;;;7.40;99.90;;;;;;5024348;28;20075;-56
2023/01/09 07:06:02;;;;;;;7.43;1.67;;;7.70;99.90;;;;;;5024286;28;20334;-55
2023/01/09 07:08:28;;;;;;;7.53;1.90;;;7.60;99.90;;;;;;5025990;28;20034;-56
2023/01/09 07:10:53;;;;;;;4.97;1.63;;;7.50;99.90;;;;;;5023057;28;20582;-55
2023/01/09 07:13:19;;;;;;;8.93;1.90;;;7.50;99.90;;;;;;5025236;28;20777;-56
2023/01/09 07:15:44;;;;;;;6.78;1.40;;;7.50;99.90;;;;;;5025894;28;21053;-56
2023/01/09 07:18:10;;;;;;;8.80;1.75;;;7.50;99.90;;;;;;5024559;28;20421;-55
2023/01/09 07:20:40;;;;;;;6.25;1.73;;;7.60;99.90;;;;;;5022331;28;20033;-56
2023/01/09 07:23:06;;;;;;;6.53;1.70;;;7.50;99.90;;;;;;5025825;28;20120;-54
2023/01/09 07:25:31;;;;;;;8.10;2.60;;;7.50;99.90;;;;;;5024093;28;20108;-54
2023/01/09 07:27:57;;;;;;;8.50;2.30;;;7.50;99.90;;;;;;5023966;28;20037;-55
2023/01/09 07:30:22;;;;;;;8.80;1.70;;;7.60;99.90;;;;;;5022943;28;20029;-54
2023/01/09 07:32:48;;;;;;;8.02;1.63;;;7.50;99.90;;;;;;5021466;28;20604;-56
2023/01/09 07:35:13;;;;;;;7.05;1.60;;;7.50;99.90;;;;;;5023299;28;20035;-55
2023/01/09 07:37:39;;;;;;;9.25;1.85;;;7.50;99.90;;;;;;5024127;28;20070;-55
2023/01/09 07:40:05;;;;;;;6.03;1.42;;;7.50;99.90;;;;;;5023372;28;20103;-55
2023/01/09 07:42:31;;;;;;;8.60;1.88;;;7.50;99.90;;;;;;5022326;28;20050;-56
2023/01/09 07:44:56;;;;;;;9.90;1.70;;;7.50;99.90;;;;;;5025319;28;20400;-54
2023/01/09 07:47:22;;;;;;;8.43;1.85;;;7.50;99.90;;;;;;5025284;28;20041;-56
2023/01/09 07:49:47;;;;;;;9.68;2.10;;;7.40;99.90;;;;;;5022316;28;20048;-56
2023/01/09 07:52:13;;;;;;;14.80;1.85;;;7.40;99.90;;;;;;5007159;28;20029;-56
2023/01/09 07:54:39;;;;;;;9.65;1.90;;;7.40;99.90;;;;;;5004628;28;20037;-55
2023/01/09 07:57:05;;;;;;;9.65;1.80;;;7.40;99.90;;;;;;5019926;28;20025;-56
2023/01/09 07:59:30;;;;;;;8.93;1.70;;;7.40;99.90;;;;;;5024518;28;20037;-55
2023/01/09 08:01:56;;;;;;;11.95;1.80;;;7.40;99.90;;;;;;5020238;28;20033;-56
2023/01/09 08:04:22;;;;;;;7.22;1.63;;;7.50;99.90;;;;;;5021835;28;20082;-56
2023/01/09 08:06:47;;;;;;;7.60;1.65;;;7.50;99.90;;;;;;5025064;28;20139;-55
2023/01/09 08:09:13;;;;;;;8.95;1.60;;;7.60;99.90;;;;;;5024351;28;20061;-56
2023/01/09 08:11:42;;;;;;;11.90;2.15;;;7.60;99.90;;;;;;5023395;28;20021;-55
2023/01/09 08:14:08;;;;;;;10.25;1.92;;;7.60;99.90;;;;;;5023435;28;20038;-54
2023/01/09 08:16:33;;;;;;;10.65;1.83;;;7.60;99.90;;;;;;5022561;28;20034;-55
2023/01/09 08:18:59;;;;;;;10.55;1.98;;;7.70;99.90;;;;;;5028396;28;20026;-57
2023/01/09 08:21:24;;;;;;;10.18;2.05;;;7.70;99.90;;;;;;5022315;28;20048;-57
2023/01/09 08:23:50;;;;;;;8.95;1.85;;;7.80;99.90;;;;;;5022470;28;20171;-57
2023/01/09 08:26:16;;;;;;;9.55;1.73;;;7.80;99.90;;;;;;5019511;28;20026;-57
2023/01/09 08:28:41;;;;;;;12.52;1.88;;;7.80;99.90;;;;;;5025856;28;20481;-57
2023/01/09 08:31:07;;;;;;;11.18;1.95;;;8.00;99.90;;;;;;5022545;28;20046;-57
2023/01/09 08:33:32;;;;;;;9.50;1.55;;;7.90;99.90;;;;;;5023955;28;20504;-57
2023/01/09 08:35:58;;;;;;;10.73;1.88;;;7.80;99.90;;;;;;5020788;28;20034;-57
2023/01/09 08:38:24;;;;;;;10.52;1.65;;;7.80;99.90;;;;;;5022923;28;20045;-57
2023/01/09 08:40:49;;;;;;;7.60;1.40;;;7.90;99.90;;;;;;5020003;28;20041;-57
2023/01/09 08:48:44;;;;;;;8.70;1.70;;;8.00;99.90;;;;;;5040316;28;20044;-57
2023/01/09 08:51:10;;;;;;;8.48;1.50;;;8.00;99.90;;;;;;5023517;28;20025;-57
2023/01/09 08:53:36;;;;;;;9.52;1.70;;;7.90;99.90;;;;;;5043797;28;20071;-57
2023/01/09 08:56:02;;;;;;;12.43;1.77;;;8.00;99.90;;;;;;5041962;28;20017;-57
2023/01/09 08:58:29;;;;;;;10.15;2.38;;;8.00;99.90;;;;;;5042724;28;20084;-57
2023/01/09 09:00:55;;;;;;;8.65;1.70;;;8.10;99.90;;;;;;5041579;28;20037;-57
2023/01/09 09:03:20;;;;;;;6.80;1.55;;;8.00;99.90;;;;;;5045113;28;20072;-56
2023/01/09 09:05:46;;;;;;;8.90;1.90;;;8.00;99.90;;;;;;5042806;28;20080;-57
2023/01/09 09:08:12;;;;;;;10.55;2.05;;;8.10;99.90;;;;;;5042847;28;20048;-57
2023/01/09 09:10:38;;;;;;;10.02;1.77;;;8.10;99.90;;;;;;5040529;28;20494;-57
2023/01/09 09:13:04;;;;;;;9.40;1.67;;;8.10;99.90;;;;;;5039351;28;20040;-57
2023/01/09 09:15:29;;;;;;;9.48;1.60;;;8.20;99.90;;;;;;5043732;28;20041;-57
2023/01/09 09:18:00;;;;;;;15.50;2.47;;;8.20;99.90;;;;;;5040322;28;20032;-57
2023/01/09 09:20:29;;;;;;;9.65;1.40;;;8.30;99.90;;;;;;5042015;28;20611;-57
2023/01/09 09:22:55;;;;;;;11.85;1.90;;;8.40;99.90;;;;;;5042918;28;20044;-58
2023/01/09 09:25:21;;;;;;;9.00;1.50;;;8.30;99.90;;;;;;5048467;28;20049;-57
2023/01/09 09:27:47;;;;;;;11.10;1.48;;;8.50;99.90;;;;;;5029399;28;20087;-57
2023/01/09 09:30:15;;;;;;;6.13;1.33;;;8.50;99.90;;;;;;5045019;28;20687;-57
2023/01/09 09:32:40;;;;;;;9.90;1.98;;;8.60;99.90;;;;;;5041985;28;20033;-57
2023/01/09 09:35:06;;;;;;;6.93;1.77;;;8.60;99.90;;;;;;5046019;28;20460;-57
2023/01/09 09:37:32;;;;;;;7.32;1.50;;;8.60;99.90;;;;;;5046302;28;20499;-57
2023/01/09 09:39:58;;;;;;;6.78;1.60;;;8.50;99.90;;;;;;5045305;28;20071;-57
2023/01/09 09:45:57;;;;;;;10.02;1.50;;;8.40;99.90;;;;;;5046013;28;20048;-57
2023/01/09 09:48:37;;;;;;;10.57;1.95;;;8.50;99.90;;;;;;5043346;28;20036;-57
2023/01/09 09:51:22;;;;;;;8.45;2.05;;;8.50;99.90;;;;;;5045673;28;20601;-58
2023/01/09 09:54:19;;;;;;;7.43;1.67;;;8.50;99.90;;;;;;5036752;28;20045;-57
2023/01/09 09:56:53;;;;;;;5.60;1.40;;;8.60;99.90;;;;;;5023482;28;20037;-57
2023/01/09 09:59:29;;;;;;;4.97;1.17;;;8.60;99.90;;;;;;5042521;28;20524;-57
2023/01/09 10:01:59;;;;;;;7.43;1.63;;;8.70;99.90;;;;;;5027922;28;20033;-57
2023/01/09 10:04:27;;;;;;;7.25;1.80;;;8.70;99.90;;;;;;5046189;28;20033;-58
2023/01/09 10:06:59;;;;;;;5.05;1.30;;;8.80;99.90;;;;;;5045275;28;20497;-57
2023/01/09 10:09:48;;;;;;;6.95;1.52;;;8.90;99.90;;;;;;5046071;28;20040;-57
2023/01/09 10:12:28;;;;;;;8.88;1.77;;;8.80;99.90;;;;;;5045175;28;20106;-57
2023/01/09 10:14:57;;;;;;;7.38;1.70;;;8.90;99.90;;;;;;5046247;28;20120;-56
2023/01/09 10:17:48;;;;;;;9.30;1.65;;;8.90;99.90;;;;;;5044923;28;20048;-57
2023/01/09 10:20:53;;;;;;;6.00;1.52;;;8.90;99.90;;;;;;5044759;28;20055;-57
2023/01/09 10:23:56;;;;;;;7.65;1.50;;;8.80;99.90;;;;;;5041450;28;20729;-57
2023/01/09 10:26:42;;;;;;;7.72;1.60;;;8.90;99.90;;;;;;5043888;28;20036;-57
2023/01/09 10:29:10;;;;;;;8.05;1.92;;;8.90;99.90;;;;;;5026656;28;20037;-57
2023/01/09 10:32:01;;;;;;;9.13;1.88;;;9.00;99.90;;;;;;5023156;28;20049;-57
2023/01/09 10:34:45;;;;;;;6.70;1.77;;;9.00;99.90;;;;;;5033566;28;20026;-57
2023/01/09 10:37:29;;;;;;;6.40;1.67;;;9.00;99.90;;;;;;5044666;28;20056;-57
2023/01/09 10:40:01;;;;;;;6.35;1.63;;;9.00;99.90;;;;;;5041550;28;20226;-57
2023/01/09 10:42:43;;;;;;;7.68;2.00;;;9.00;99.90;;;;;;5043624;28;20044;-57
2023/01/09 10:45:31;;;;;;;9.68;1.65;;;9.10;99.90;;;;;;5043760;28;20036;-56
2023/01/09 10:48:34;;;;;;;7.30;1.65;;;9.10;99.90;;;;;;5044327;28;20063;-57
2023/01/09 10:51:03;;;;;;;5.45;1.52;;;9.20;99.90;;;;;;4997186;28;20048;-57
2023/01/09 10:53:38;;;;;;;6.18;1.70;;;9.20;99.90;;;;;;5023678;28;20076;-57
2023/01/09 10:56:18;;;;;;;4.43;1.55;;;9.20;99.90;;;;;;5022854;28;20033;-57
2023/01/09 10:58:43;;;;;;;6.28;1.52;;;9.30;99.90;;;;;;5024265;28;20381;-57
2023/01/09 11:01:09;;;;;;;6.80;1.70;;;9.30;99.90;;;;;;5020372;28;20033;-57
2023/01/09 11:03:36;;;;;;;7.65;1.35;;;9.30;99.90;;;;;;5024269;28;20776;-57
2023/01/09 11:06:02;;;;;;;8.65;1.85;;;9.30;99.90;;;;;;5027057;28;20492;-56
2023/01/09 11:08:44;;;;;;;6.80;1.33;;;9.20;99.90;;;;;;5027040;28;20030;-58
2023/01/09 11:11:11;;;;;;;8.32;1.65;;;9.20;99.90;;;;;;5022709;28;20036;-57
2023/01/09 11:13:37;;;;;;;5.75;1.70;;;9.10;99.90;;;;;;5006733;28;20030;-57
2023/01/09 11:16:19;;;;;;;7.30;1.63;;;9.00;99.90;;;;;;5024132;28;20032;-57
2023/01/09 11:18:57;;;;;;;5.25;1.30;;;9.00;99.90;;;;;;5023836;28;20040;-57
2023/01/09 11:21:32;;;;;;;4.80;1.63;;;9.00;99.90;;;;;;5025086;28;20056;-56
2023/01/09 11:24:18;;;;;;;4.00;1.17;;;9.00;99.90;;;;;;5020472;28;20108;-58
2023/01/09 11:27:11;;;;;;;6.40;1.50;;;9.00;99.90;;;;;;5041904;28;20083;-58
2023/01/09 11:29:38;;;;;;;7.85;1.95;;;9.10;99.90;;;;;;5042716;28;20029;-58
2023/01/09 11:32:04;;;;;;;5.05;1.75;;;9.10;99.90;;;;;;5043425;28;20040;-56
2023/01/09 11:34:31;;;;;;;5.47;1.70;;;9.10;99.90;;;;;;5043792;28;20032;-58
2023/01/09 11:37:12;;;;;;;4.65;1.58;;;9.00;99.90;;;;;;5043132;28;20504;-57
2023/01/09 11:39:44;;;;;;;3.65;1.45;;;9.00;99.90;;;;;;5042289;28;20057;-57
2023/01/09 11:45:26;;;;;;;4.85;1.55;;;9.10;99.90;;;;;;5042252;28;20031;-57
2023/01/09 11:47:52;;;;;;;6.63;1.80;;;9.00;99.90;;;;;;5042609;28;20036;-58
2023/01/09 11:50:23;;;;;;;5.78;1.65;;;9.00;99.90;;;;;;5043658;28;20385;-58
2023/01/09 11:53:14;;;;;;;7.40;1.63;;;9.00;99.90;;;;;;5043323;28;20033;-57
2023/01/09 11:55:41;;;;;;;6.05;1.80;;;9.00;99.90;;;;;;5040803;28;20140;-58
2023/01/09 11:58:19;;;;;;;6.47;1.90;;;9.10;99.90;;;;;;5043514;28;21100;-58
2023/01/09 12:01:10;;;;;;;3.67;1.73;;;9.10;99.90;;;;;;5044075;28;20447;-58
2023/01/09 12:03:50;;;;;;;5.22;1.63;;;9.00;99.90;;;;;;5042404;28;20044;-57
2023/01/09 12:06:45;;;;;;;6.68;1.50;;;9.00;99.90;;;;;;5040727;28;20029;-58
2023/01/09 12:09:26;;;;;;;5.35;1.73;;;8.90;99.90;;;;;;4972995;28;20121;-57
2023/01/09 12:11:55;;;;;;;6.85;2.00;;;9.10;99.90;;;;;;5042627;28;20061;-58
2023/01/09 12:14:31;;;;;;;7.40;1.98;;;9.00;99.90;;;;;;5041950;28;20049;-58
2023/01/09 12:17:21;;;;;;;4.82;2.03;;;9.10;99.90;;;;;;5043495;28;20571;-58
2023/01/09 12:20:16;;;;;;;5.80;1.52;;;9.00;99.90;;;;;;5041613;28;20043;-58
2023/01/09 12:22:52;;;;;;;5.75;1.65;;;9.10;99.90;;;;;;5041302;28;20040;-58
2023/01/09 12:25:27;;;;;;;5.22;1.40;;;9.00;99.90;;;;;;5045721;28;20071;-58
2023/01/09 12:28:18;;;;;;;4.35;1.63;;;9.00;99.90;;;;;;5035638;28;20040;-58
2023/01/09 12:31:22;;;;;;;5.13;1.63;;;8.90;99.90;;;;;;5040795;28;20068;-57
2023/01/09 12:33:50;;;;;;;6.25;1.98;;;8.90;99.90;;;;;;5023562;28;20582;-58
2023/01/09 12:36:27;;;;;;;5.07;1.80;;;9.00;99.90;;;;;;5020265;28;20029;-58
2023/01/09 12:39:15;;;;;;;6.97;2.20;;;8.90;99.90;;;;;;5008558;28;20060;-58
2023/01/09 12:42:05;;;;;;;8.63;2.55;;;8.90;99.90;;;;;;5022152;28;20485;-58
2023/01/09 12:44:36;;;;;;;5.80;2.08;;;9.00;99.90;;;;;;5042843;28;20039;-57
2023/01/09 12:47:17;;;;;;;3.60;1.60;;;8.70;99.90;;;;;;5042205;28;20041;-57
2023/01/09 12:50:11;;;;;;;4.25;1.65;;;8.70;99.90;;;;;;5040614;28;20025;-57
2023/01/09 12:53:04;;;;;;;5.35;1.80;;;8.80;99.90;;;;;;5042946;28;20056;-58
2023/01/09 12:55:40;;;;;;;5.65;1.90;;;8.90;99.90;;;;;;5041393;28;20025;-58
2023/01/09 12:58:13;;;;;;;5.82;1.90;;;8.90;99.90;;;;;;5043945;28;20035;-58
2023/01/09 13:00:46;;;;;;;4.28;1.77;;;9.00;99.90;;;;;;5043000;28;20029;-58
2023/01/09 13:03:34;;;;;;;6.38;2.17;;;8.90;99.90;;;;;;5046573;28;20037;-56
2023/01/09 13:06:01;;;;;;;4.00;1.70;;;9.00;99.90;;;;;;5027689;28;20471;-58
2023/01/09 13:09:12;;;;;;;6.00;2.33;;;9.10;99.90;;;;;;5047447;28;20049;-58
2023/01/09 13:11:46;;;;;;;4.13;2.15;;;9.00;99.90;;;;;;4986384;28;20022;-57
2023/01/09 13:14:21;;;;;;;7.28;2.13;;;9.00;99.90;;;;;;5036077;28;20021;-58
2023/01/09 13:16:50;;;;;;;4.97;2.20;;;9.00;99.90;;;;;;5043746;28;20492;-57
2023/01/09 13:19:27;;;;;;;6.22;1.83;;;9.00;99.90;;;;;;5042543;28;20502;-58
2023/01/09 13:21:54;;;;;;;4.32;1.77;;;9.00;99.90;;;;;;5044074;28;20029;-58
2023/01/09 13:24:26;;;;;;;2.67;1.60;;;9.10;99.90;;;;;;5045566;28;20143;-57
2023/01/09 13:27:13;;;;;;;5.00;2.05;;;9.00;99.90;;;;;;5045153;28;20485;-57
2023/01/09 13:29:42;;;;;;;7.93;1.80;;;8.90;99.90;;;;;;5046692;28;20030;-57
2023/01/09 13:32:23;;;;;;;5.25;1.90;;;8.80;99.90;;;;;;5045081;28;20044;-57
2023/01/09 13:34:52;;;;;;;5.78;1.88;;;8.80;99.90;;;;;;5044809;28;20091;-58